createdAt,value
2022-12-13T00:00:30.882Z,73.14
2022-12-13T00:01:33.457Z,72.82
2022-12-13T00:02:35.371Z,72.64
2022-12-13T00:03:37.172Z,72.45
2022-12-13T00:04:38.991Z,72.78
2022-12-13T00:05:45.912Z,72.64
2022-12-13T00:06:48.161Z,72.36
2022-12-13T00:07:50.910Z,72.51
2022-12-13T00:08:52.809Z,72.12
2022-12-13T00:09:54.616Z,72.38
2022-12-13T00:11:01.894Z,72.68
2022-12-13T00:12:03.822Z,72.85
2022-12-13T00:13:05.598Z,72.15
2022-12-13T00:14:07.465Z,72.68
2022-12-13T00:15:09.618Z,72.68
2022-12-13T00:16:13.234Z,73.09
2022-12-13T00:17:15.117Z,72.78
2022-12-13T00:18:16.928Z,73.14
2022-12-13T00:19:18.850Z,73.13
2022-12-13T00:20:20.580Z,73.15
2022-12-13T00:21:24.071Z,72.86
2022-12-13T00:22:25.897Z,73.26
2022-12-13T00:23:29.089Z,72.93
2022-12-13T00:24:30.830Z,73.19
2022-12-13T00:25:33.936Z,73.29
2022-12-13T00:26:36.091Z,72.73
2022-12-13T00:27:37.922Z,72.63
2022-12-13T00:28:40.071Z,72.96
2022-12-13T00:29:41.982Z,73.10
2022-12-13T00:30:43.731Z,73.17
2022-12-13T00:32:01.339Z,72.80
2022-12-13T00:33:03.450Z,73.00
2022-12-13T00:34:05.324Z,72.71
2022-12-13T00:35:07.164Z,72.54
2022-12-13T00:36:09.374Z,72.60
2022-12-13T00:37:11.190Z,72.59
2022-12-13T00:38:12.997Z,73.18
2022-12-13T00:39:17.011Z,73.23
2022-12-13T00:40:18.847Z,72.77
2022-12-13T00:41:20.642Z,73.10
2022-12-13T00:42:22.635Z,73.14
2022-12-13T00:43:24.437Z,73.19
2022-12-13T00:44:26.744Z,72.87
2022-12-13T00:45:28.963Z,72.88
2022-12-13T00:46:31.567Z,72.72
2022-12-13T00:47:33.714Z,72.58
2022-12-13T00:48:35.501Z,73.08
2022-12-13T00:49:37.380Z,73.33
2022-12-13T00:50:39.399Z,73.60
2022-12-13T00:51:41.265Z,73.22
2022-12-13T00:52:43.059Z,73.23
2022-12-13T00:53:44.990Z,73.54
2022-12-13T00:54:47.108Z,73.60
2022-12-13T00:55:48.857Z,73.37
2022-12-13T00:56:51.851Z,73.33
2022-12-13T00:57:53.727Z,73.21
2022-12-13T00:58:56.000Z,73.17
2022-12-13T00:59:57.814Z,73.03
2022-12-13T01:01:12.883Z,72.31
2022-12-13T01:02:14.698Z,72.83
2022-12-13T01:03:25.761Z,72.72
2022-12-13T01:04:27.717Z,72.59
2022-12-13T01:06:04.181Z,72.44
2022-12-13T01:06:51.814Z,72.42
2022-12-13T01:07:53.655Z,72.31
2022-12-13T01:08:55.870Z,72.21
2022-12-13T01:10:01.146Z,72.26
2022-12-13T01:11:03.616Z,72.51
2022-12-13T01:12:11.945Z,72.77
2022-12-13T01:13:14.758Z,72.90
2022-12-13T01:14:17.876Z,72.76
2022-12-13T01:15:19.824Z,72.56
2022-12-13T01:16:21.967Z,72.60
2022-12-13T01:17:24.196Z,72.55
2022-12-13T01:18:26.146Z,72.35
2022-12-13T01:19:29.034Z,72.25
2022-12-13T01:20:30.941Z,72.55
2022-12-13T01:21:34.055Z,72.68
2022-12-13T01:22:36.031Z,72.46
2022-12-13T01:23:38.316Z,72.48
2022-12-13T01:24:40.046Z,72.38
2022-12-13T01:25:41.802Z,72.03
2022-12-13T01:26:45.020Z,72.28
2022-12-13T01:27:46.772Z,72.17
2022-12-13T01:28:49.273Z,72.25
2022-12-13T01:29:51.013Z,72.37
2022-12-13T01:30:56.564Z,72.13
2022-12-13T01:31:58.503Z,71.71
2022-12-13T01:33:00.377Z,71.66
2022-12-13T01:34:10.770Z,71.56
2022-12-13T01:35:14.397Z,71.38
2022-12-13T01:36:27.301Z,71.81
2022-12-13T01:37:30.026Z,72.47
2022-12-13T01:38:32.120Z,72.23
2022-12-13T01:39:39.947Z,72.53
2022-12-13T01:40:49.185Z,72.55
2022-12-13T01:41:52.359Z,72.28
2022-12-13T01:42:54.157Z,72.40
2022-12-13T01:44:03.800Z,72.54
2022-12-13T01:45:16.802Z,72.60
2022-12-13T01:46:19.426Z,72.37
2022-12-13T01:47:31.080Z,72.09
2022-12-13T01:48:35.712Z,72.20
2022-12-13T01:49:37.630Z,72.66
2022-12-13T01:50:42.702Z,72.27
2022-12-13T01:51:47.749Z,72.22
2022-12-13T01:52:49.749Z,72.49
2022-12-13T01:53:52.407Z,72.46
2022-12-13T01:54:57.009Z,72.41
2022-12-13T01:56:20.672Z,72.45
2022-12-13T01:57:23.183Z,73.10
2022-12-13T01:58:25.148Z,73.12
2022-12-13T01:59:27.407Z,72.93
2022-12-13T02:00:29.476Z,72.62
2022-12-13T02:01:31.747Z,72.82
2022-12-13T02:02:34.068Z,72.98
2022-12-13T02:03:36.181Z,72.31
2022-12-13T02:04:44.140Z,72.26
2022-12-13T02:06:06.738Z,72.58
2022-12-13T02:07:09.255Z,72.72
2022-12-13T02:08:15.941Z,73.09
2022-12-13T02:09:17.993Z,72.96
2022-12-13T02:10:19.987Z,73.09
2022-12-13T02:11:22.032Z,72.76
2022-12-13T02:12:25.065Z,72.84
2022-12-13T02:13:31.777Z,72.71
2022-12-13T02:14:35.415Z,73.02
2022-12-13T02:15:49.462Z,72.92
2022-12-13T02:16:53.451Z,73.35
2022-12-13T02:18:01.012Z,73.56
2022-12-13T02:19:21.515Z,73.12
2022-12-13T02:20:29.474Z,73.03
2022-12-13T02:21:50.111Z,73.47
2022-12-13T02:22:58.017Z,73.47
2022-12-13T02:23:59.871Z,73.54
2022-12-13T02:25:10.577Z,73.74
2022-12-13T02:26:31.477Z,74.00
2022-12-13T02:27:33.439Z,73.75
2022-12-13T02:29:03.307Z,73.73
2022-12-13T02:30:10.933Z,73.73
2022-12-13T02:31:24.935Z,73.84
2022-12-13T02:32:50.654Z,73.76
2022-12-13T02:34:04.770Z,73.96
2022-12-13T02:35:12.190Z,73.47
2022-12-13T02:36:25.380Z,73.50
2022-12-13T02:37:33.158Z,73.24
2022-12-13T02:38:39.198Z,73.82
2022-12-13T02:39:42.860Z,73.62
2022-12-13T02:40:54.557Z,73.71
2022-12-13T02:42:08.167Z,73.85
2022-12-13T02:43:26.555Z,73.65
2022-12-13T02:44:42.245Z,73.80
2022-12-13T02:45:48.872Z,73.88
2022-12-13T02:46:56.125Z,74.02
2022-12-13T02:48:01.191Z,73.96
2022-12-13T02:49:03.772Z,74.11
2022-12-13T02:50:07.582Z,73.99
2022-12-13T02:51:10.666Z,73.55
2022-12-13T02:52:14.522Z,73.22
2022-12-13T02:53:24.906Z,73.10
2022-12-13T02:54:26.672Z,73.02
2022-12-13T02:55:29.228Z,73.04
2022-12-13T02:56:33.772Z,73.53
2022-12-13T02:57:37.105Z,74.06
2022-12-13T02:58:44.068Z,73.83
2022-12-13T02:59:45.862Z,73.74
2022-12-13T03:01:27.787Z,73.84
2022-12-13T03:02:44.040Z,73.23
2022-12-13T03:03:58.225Z,73.37
2022-12-13T03:05:39.833Z,73.60
2022-12-13T03:06:47.417Z,74.13
2022-12-13T03:07:56.903Z,73.95
2022-12-13T03:08:58.630Z,73.85
2022-12-13T03:10:24.292Z,73.57
2022-12-13T03:11:29.440Z,73.14
2022-12-13T03:13:13.129Z,73.40
2022-12-13T03:14:20.498Z,73.52
2022-12-13T03:15:27.257Z,73.66
2022-12-13T03:16:29.058Z,73.49
2022-12-13T03:17:35.032Z,73.16
2022-12-13T03:18:37.712Z,73.14
2022-12-13T03:19:39.496Z,73.97
2022-12-13T03:20:45.893Z,74.03
2022-12-13T03:21:49.376Z,74.37
2022-12-13T03:22:51.812Z,74.35
2022-12-13T03:23:53.585Z,73.78
2022-12-13T03:24:55.435Z,74.26
2022-12-13T03:26:00.240Z,73.86
2022-12-13T03:27:02.121Z,74.01
2022-12-13T03:28:04.104Z,74.05
2022-12-13T03:29:06.531Z,73.73
2022-12-13T03:30:08.591Z,73.34
2022-12-13T03:31:10.597Z,73.23
2022-12-13T03:32:12.395Z,73.35
2022-12-13T03:33:14.237Z,73.73
2022-12-13T03:34:22.507Z,73.48
2022-12-13T03:35:25.347Z,73.24
2022-12-13T03:36:36.944Z,73.66
2022-12-13T03:37:38.731Z,73.82
2022-12-13T03:38:41.096Z,73.83
2022-12-13T03:39:43.133Z,73.32
2022-12-13T03:40:45.301Z,73.42
2022-12-13T03:41:47.213Z,74.03
2022-12-13T03:42:49.190Z,74.05
2022-12-13T03:43:51.362Z,74.26
2022-12-13T03:44:54.148Z,73.82
2022-12-13T03:45:55.993Z,73.85
2022-12-13T03:46:57.824Z,73.74
2022-12-13T03:48:02.627Z,73.50
2022-12-13T03:49:04.448Z,73.11
2022-12-13T03:50:07.406Z,73.25
2022-12-13T03:51:28.268Z,73.29
2022-12-13T03:52:30.051Z,73.44
2022-12-13T03:53:33.035Z,73.16
2022-12-13T03:54:35.700Z,72.94
2022-12-13T03:55:37.459Z,72.96
2022-12-13T03:56:39.242Z,73.21
2022-12-13T03:57:40.986Z,73.04
2022-12-13T03:58:42.764Z,72.59
2022-12-13T03:59:44.583Z,72.55
2022-12-13T04:00:46.317Z,73.30
2022-12-13T04:01:48.803Z,73.31
2022-12-13T04:02:50.707Z,72.96
2022-12-13T04:03:52.594Z,73.35
2022-12-13T04:04:54.380Z,73.72
2022-12-13T04:06:02.484Z,73.42
2022-12-13T04:07:04.314Z,73.28
2022-12-13T04:08:23.911Z,73.04
2022-12-13T04:09:25.700Z,73.54
2022-12-13T04:10:27.995Z,73.46
2022-12-13T04:11:48.200Z,73.43
2022-12-13T04:13:08.187Z,73.45
2022-12-13T04:14:10.050Z,73.49
2022-12-13T04:15:12.048Z,73.43
2022-12-13T04:16:14.077Z,73.39
2022-12-13T04:17:15.945Z,73.28
2022-12-13T04:18:18.756Z,73.23
2022-12-13T04:19:22.761Z,73.05
2022-12-13T04:20:25.438Z,72.95
2022-12-13T04:21:27.181Z,73.12
2022-12-13T04:22:29.788Z,73.05
2022-12-13T04:23:31.580Z,73.35
2022-12-13T04:24:33.324Z,73.34
2022-12-13T04:25:35.090Z,73.57
2022-12-13T04:26:36.912Z,73.48
2022-12-13T04:27:38.785Z,73.29
2022-12-13T04:28:40.552Z,73.30
2022-12-13T04:29:42.351Z,73.46
2022-12-13T04:30:44.096Z,73.96
2022-12-13T04:31:45.984Z,73.38
2022-12-13T04:32:47.826Z,72.87
2022-12-13T04:33:49.615Z,73.41
2022-12-13T04:34:51.476Z,73.64
2022-12-13T04:35:53.314Z,72.98
2022-12-13T04:36:55.118Z,73.50
2022-12-13T04:37:57.771Z,73.18
2022-12-13T04:39:00.474Z,73.23
2022-12-13T04:40:02.542Z,72.85
2022-12-13T04:41:07.249Z,73.05
2022-12-13T04:42:09.296Z,72.92
2022-12-13T04:43:11.213Z,73.22
2022-12-13T04:44:27.866Z,73.31
2022-12-13T04:45:31.952Z,73.32
2022-12-13T04:46:34.427Z,73.35
2022-12-13T04:47:36.204Z,73.74
2022-12-13T04:48:37.998Z,73.56
2022-12-13T04:49:39.775Z,73.09
2022-12-13T04:50:41.613Z,73.68
2022-12-13T04:51:43.392Z,73.00
2022-12-13T04:52:49.564Z,73.75
2022-12-13T04:53:51.363Z,73.25
2022-12-13T04:54:55.818Z,73.78
2022-12-13T04:55:58.109Z,73.66
2022-12-13T04:56:59.970Z,73.53
2022-12-13T04:58:03.698Z,73.64
2022-12-13T04:59:05.635Z,73.69
2022-12-13T05:00:09.309Z,73.93
2022-12-13T05:01:14.430Z,73.67
2022-12-13T05:02:23.561Z,74.35
2022-12-13T05:03:25.909Z,73.90
2022-12-13T05:04:32.672Z,74.25
2022-12-13T05:05:35.080Z,74.05
2022-12-13T05:06:36.924Z,74.08
2022-12-13T05:07:42.314Z,74.04
2022-12-13T05:08:45.461Z,74.22
2022-12-13T05:09:47.229Z,73.83
2022-12-13T05:10:49.045Z,73.53
2022-12-13T05:11:51.116Z,73.53
2022-12-13T05:12:53.256Z,73.56
2022-12-13T05:13:55.046Z,73.24
2022-12-13T05:14:56.831Z,73.29
2022-12-13T05:15:59.612Z,73.68
2022-12-13T05:17:01.944Z,73.64
2022-12-13T05:18:10.089Z,73.57
2022-12-13T05:19:12.663Z,73.47
2022-12-13T05:20:14.462Z,73.94
2022-12-13T05:21:16.240Z,74.13
2022-12-13T05:22:20.612Z,74.42
2022-12-13T05:23:24.460Z,74.27
2022-12-13T05:24:26.278Z,74.94
2022-12-13T05:25:28.147Z,74.40
2022-12-13T05:26:30.067Z,74.66
2022-12-13T05:27:31.836Z,74.28
2022-12-13T05:28:33.973Z,73.94
2022-12-13T05:29:36.719Z,74.22
2022-12-13T05:30:39.176Z,74.08
2022-12-13T05:31:40.974Z,73.65
2022-12-13T05:32:44.882Z,73.36
2022-12-13T05:33:46.797Z,73.41
2022-12-13T05:34:48.668Z,73.44
2022-12-13T05:35:53.824Z,73.85
2022-12-13T05:36:58.088Z,74.50
2022-12-13T05:38:00.080Z,74.37
2022-12-13T05:39:01.862Z,74.08
2022-12-13T05:40:03.944Z,73.82
2022-12-13T05:41:06.432Z,73.43
2022-12-13T05:42:08.288Z,73.84
2022-12-13T05:43:21.380Z,74.23
2022-12-13T05:44:24.625Z,73.72
2022-12-13T05:45:27.528Z,74.05
2022-12-13T05:46:29.459Z,73.55
2022-12-13T05:47:31.260Z,73.91
2022-12-13T05:48:33.413Z,73.80
2022-12-13T05:49:35.188Z,73.62
2022-12-13T05:50:38.415Z,73.59
2022-12-13T05:51:40.194Z,73.22
2022-12-13T05:52:43.068Z,73.63
2022-12-13T05:53:48.586Z,73.48
2022-12-13T05:54:56.703Z,73.35
2022-12-13T05:56:03.004Z,73.57
2022-12-13T05:57:04.765Z,73.09
2022-12-13T05:58:06.616Z,72.73
2022-12-13T05:59:15.251Z,73.04
2022-12-13T06:00:28.965Z,73.67
2022-12-13T06:01:31.392Z,74.00
2022-12-13T06:02:37.388Z,73.47
2022-12-13T06:03:40.256Z,73.24
2022-12-13T06:04:42.080Z,73.28
2022-12-13T06:05:44.640Z,73.86
2022-12-13T06:06:46.345Z,73.53
2022-12-13T06:07:57.086Z,73.73
2022-12-13T06:09:00.251Z,73.29
2022-12-13T06:10:10.041Z,74.20
2022-12-13T06:11:12.768Z,73.06
2022-12-13T06:12:37.116Z,73.09
2022-12-13T06:13:50.434Z,72.94
2022-12-13T06:14:52.307Z,73.51
2022-12-13T06:16:04.120Z,73.30
2022-12-13T06:17:06.019Z,72.67
2022-12-13T06:18:08.269Z,72.68
2022-12-13T06:19:11.368Z,72.99
2022-12-13T06:20:23.185Z,72.71
2022-12-13T06:21:26.663Z,72.35
2022-12-13T06:22:28.623Z,72.58
2022-12-13T06:23:31.092Z,72.57
2022-12-13T06:24:33.111Z,72.18
2022-12-13T06:25:36.309Z,72.00
2022-12-13T06:26:38.124Z,71.87
2022-12-13T06:27:40.000Z,71.85
2022-12-13T06:28:41.878Z,71.96
2022-12-13T06:29:43.665Z,71.93
2022-12-13T06:30:45.496Z,72.34
2022-12-13T06:31:47.333Z,72.03
2022-12-13T06:32:50.444Z,72.07
2022-12-13T06:33:52.147Z,71.89
2022-12-13T06:34:54.009Z,72.30
2022-12-13T06:35:58.905Z,72.07
2022-12-13T06:37:00.972Z,72.00
2022-12-13T06:38:03.804Z,72.54
2022-12-13T06:39:15.874Z,71.97
2022-12-13T06:40:22.954Z,72.25
2022-12-13T06:41:30.520Z,72.17
2022-12-13T06:42:33.864Z,72.79
2022-12-13T06:43:35.736Z,72.81
2022-12-13T06:44:38.341Z,72.59
2022-12-13T06:45:41.076Z,71.90
2022-12-13T06:46:43.941Z,71.79
2022-12-13T06:47:45.722Z,71.97
2022-12-13T06:48:47.533Z,71.86
2022-12-13T06:49:49.313Z,71.85
2022-12-13T06:50:51.076Z,71.73
2022-12-13T06:51:54.245Z,71.74
2022-12-13T06:52:56.014Z,72.31
2022-12-13T06:53:57.757Z,71.79
2022-12-13T06:55:03.161Z,71.89
2022-12-13T06:56:06.451Z,72.09
2022-12-13T06:57:08.333Z,71.42
2022-12-13T06:58:10.101Z,71.64
2022-12-13T06:59:12.474Z,71.79
2022-12-13T07:00:15.381Z,71.65
2022-12-13T07:01:25.088Z,70.86
2022-12-13T07:02:27.248Z,71.65
2022-12-13T07:03:30.031Z,71.16
2022-12-13T07:04:32.545Z,70.97
2022-12-13T07:05:34.379Z,71.49
2022-12-13T07:06:36.249Z,71.26
2022-12-13T07:07:38.067Z,71.46
2022-12-13T07:08:40.693Z,71.54
2022-12-13T07:09:42.917Z,71.65
2022-12-13T07:10:46.435Z,71.17
2022-12-13T07:11:51.943Z,70.99
2022-12-13T07:12:54.237Z,71.10
2022-12-13T07:13:56.564Z,71.45
2022-12-13T07:14:58.306Z,71.06
2022-12-13T07:16:00.897Z,70.96
2022-12-13T07:17:03.799Z,71.63
2022-12-13T07:18:05.911Z,70.98
2022-12-13T07:19:13.491Z,71.32
2022-12-13T07:20:26.043Z,71.33
2022-12-13T07:21:28.273Z,71.17
2022-12-13T07:22:34.785Z,70.98
2022-12-13T07:23:38.062Z,71.48
2022-12-13T07:24:39.857Z,70.99
2022-12-13T07:25:42.179Z,70.51
2022-12-13T07:26:43.942Z,70.69
2022-12-13T07:27:45.729Z,70.72
2022-12-13T07:28:53.090Z,71.03
2022-12-13T07:29:58.172Z,70.64
2022-12-13T07:31:04.098Z,70.92
2022-12-13T07:32:06.186Z,71.75
2022-12-13T07:33:08.402Z,71.15
2022-12-13T07:34:15.471Z,71.41
2022-12-13T07:35:17.607Z,71.29
2022-12-13T07:36:23.824Z,70.86
2022-12-13T07:37:29.774Z,71.07
2022-12-13T07:38:36.340Z,70.26
2022-12-13T07:39:39.432Z,71.05
2022-12-13T07:40:41.614Z,71.27
2022-12-13T07:41:43.499Z,70.84
2022-12-13T07:42:54.822Z,71.19
2022-12-13T07:43:56.798Z,71.26
2022-12-13T07:44:58.655Z,70.99
2022-12-13T07:46:02.038Z,71.11
2022-12-13T07:47:03.992Z,70.76
2022-12-13T07:48:06.709Z,70.89
2022-12-13T07:49:08.464Z,71.39
2022-12-13T07:50:24.756Z,70.98
2022-12-13T07:51:33.997Z,71.79
2022-12-13T07:52:35.729Z,71.96
2022-12-13T07:53:37.875Z,71.91
2022-12-13T07:54:39.694Z,71.33
2022-12-13T07:55:41.530Z,71.68
2022-12-13T07:56:43.314Z,71.52
2022-12-13T07:57:46.435Z,71.53
2022-12-13T07:58:48.164Z,71.96
2022-12-13T07:59:49.926Z,71.33
2022-12-13T08:00:51.662Z,70.65
2022-12-13T08:01:53.506Z,71.25
2022-12-13T08:02:55.336Z,71.23
2022-12-13T08:03:57.203Z,71.38
2022-12-13T08:04:59.074Z,71.36
2022-12-13T08:06:20.776Z,70.78
2022-12-13T08:07:22.556Z,71.58
2022-12-13T08:08:31.473Z,71.18
2022-12-13T08:09:33.635Z,71.70
2022-12-13T08:10:35.546Z,71.68
2022-12-13T08:11:37.327Z,71.41
2022-12-13T08:12:39.218Z,71.63
2022-12-13T08:13:41.786Z,71.27
2022-12-13T08:14:43.670Z,71.17
2022-12-13T08:15:45.564Z,71.00
2022-12-13T08:16:47.504Z,70.68
2022-12-13T08:17:49.750Z,70.96
2022-12-13T08:18:51.537Z,70.88
2022-12-13T08:19:53.326Z,70.97
2022-12-13T08:20:59.351Z,70.82
2022-12-13T08:22:02.030Z,70.37
2022-12-13T08:23:04.151Z,70.55
2022-12-13T08:24:08.012Z,70.63
2022-12-13T08:25:13.013Z,70.46
2022-12-13T08:26:15.336Z,70.83
2022-12-13T08:27:17.130Z,70.92
2022-12-13T08:28:18.892Z,70.97
2022-12-13T08:29:23.188Z,70.79
2022-12-13T08:30:35.671Z,70.49
2022-12-13T08:31:37.501Z,70.92
2022-12-13T08:32:39.290Z,70.75
2022-12-13T08:33:41.501Z,70.68
2022-12-13T08:34:43.524Z,70.94
2022-12-13T08:35:45.856Z,71.15
2022-12-13T08:36:47.632Z,71.08
2022-12-13T08:37:50.557Z,71.26
2022-12-13T08:38:55.173Z,71.01
2022-12-13T08:39:56.957Z,71.13
2022-12-13T08:40:59.383Z,71.19
2022-12-13T08:42:14.773Z,71.04
2022-12-13T08:43:19.484Z,70.95
2022-12-13T08:44:27.099Z,70.98
2022-12-13T08:45:28.992Z,70.72
2022-12-13T08:46:32.101Z,70.85
2022-12-13T08:47:38.329Z,70.93
2022-12-13T08:48:44.292Z,71.07
2022-12-13T08:49:46.590Z,71.11
2022-12-13T08:50:48.482Z,71.21
2022-12-13T08:51:50.286Z,71.13
2022-12-13T08:52:52.634Z,70.95
2022-12-13T08:53:54.528Z,71.14
2022-12-13T08:55:14.188Z,71.45
2022-12-13T08:56:16.285Z,71.40
2022-12-13T08:57:18.147Z,71.28
2022-12-13T08:58:20.014Z,71.02
2022-12-13T08:59:24.595Z,71.22
2022-12-13T09:00:26.430Z,70.92
2022-12-13T09:01:28.290Z,70.66
2022-12-13T09:02:30.121Z,70.35
2022-12-13T09:03:40.444Z,70.71
2022-12-13T09:04:42.458Z,70.49
2022-12-13T09:05:44.227Z,70.42
2022-12-13T09:06:46.251Z,70.32
2022-12-13T09:07:48.121Z,70.46
2022-12-13T09:08:52.985Z,70.44
2022-12-13T09:09:55.333Z,70.33
2022-12-13T09:10:59.202Z,70.70
2022-12-13T09:12:01.329Z,70.44
2022-12-13T09:13:13.474Z,70.38
2022-12-13T09:14:35.938Z,70.21
2022-12-13T09:15:39.820Z,69.66
2022-12-13T09:16:50.886Z,69.70
2022-12-13T09:17:53.216Z,69.55
2022-12-13T09:18:56.047Z,69.07
2022-12-13T09:19:58.860Z,69.86
2022-12-13T09:21:10.393Z,70.04
2022-12-13T09:22:14.618Z,70.18
2022-12-13T09:23:23.881Z,69.50
2022-12-13T09:24:26.435Z,70.21
2022-12-13T09:25:28.260Z,69.31
2022-12-13T09:26:38.816Z,68.83
2022-12-13T09:27:40.697Z,68.97
2022-12-13T09:28:42.718Z,68.66
2022-12-13T09:29:44.881Z,68.25
2022-12-13T09:30:46.783Z,68.57
2022-12-13T09:31:53.055Z,68.54
2022-12-13T09:32:56.235Z,68.55
2022-12-13T09:33:58.016Z,68.06
2022-12-13T09:35:00.181Z,68.75
2022-12-13T09:36:03.964Z,68.38
2022-12-13T09:37:06.012Z,68.17
2022-12-13T09:38:08.714Z,67.13
2022-12-13T09:39:12.350Z,67.03
2022-12-13T09:40:26.117Z,67.33
2022-12-13T09:41:31.337Z,67.65
2022-12-13T09:42:34.233Z,67.80
2022-12-13T09:43:42.834Z,67.75
2022-12-13T09:45:02.149Z,68.29
2022-12-13T09:46:22.158Z,67.53
2022-12-13T09:47:35.367Z,68.02
2022-12-13T09:48:37.616Z,67.87
2022-12-13T09:49:41.907Z,67.76
2022-12-13T09:50:53.138Z,68.04
2022-12-13T09:52:11.169Z,67.72
2022-12-13T09:53:21.333Z,67.21
2022-12-13T09:54:24.827Z,67.87
2022-12-13T09:55:31.036Z,67.16
2022-12-13T09:56:34.633Z,66.70
2022-12-13T09:57:36.963Z,66.68
2022-12-13T09:58:38.748Z,66.87
2022-12-13T09:59:41.155Z,67.90
2022-12-13T10:00:43.476Z,67.47
2022-12-13T10:01:46.155Z,67.68
2022-12-13T10:02:51.791Z,67.41
2022-12-13T10:03:55.032Z,67.10
2022-12-13T10:05:22.942Z,67.01
2022-12-13T10:06:31.646Z,67.01
2022-12-13T10:07:33.480Z,67.36
2022-12-13T10:08:37.389Z,67.64
2022-12-13T10:09:39.154Z,67.07
2022-12-13T10:10:41.121Z,67.33
2022-12-13T10:11:51.033Z,67.14
2022-12-13T10:12:56.566Z,66.85
2022-12-13T10:14:01.553Z,67.33
2022-12-13T10:15:03.837Z,67.71
2022-12-13T10:16:08.331Z,67.98
2022-12-13T10:17:14.112Z,67.00
2022-12-13T10:18:22.344Z,67.21
2022-12-13T10:19:44.394Z,67.89
2022-12-13T10:20:47.804Z,67.78
2022-12-13T10:21:51.656Z,67.75
2022-12-13T10:23:22.911Z,67.59
2022-12-13T10:24:36.502Z,67.13
2022-12-13T10:26:02.630Z,67.27
2022-12-13T10:27:15.016Z,68.02
2022-12-13T10:28:18.069Z,66.74
2022-12-13T10:29:20.632Z,67.50
2022-12-13T10:30:28.443Z,67.03
2022-12-13T10:31:39.264Z,66.80
2022-12-13T10:32:44.065Z,67.42
2022-12-13T10:34:04.778Z,67.99
2022-12-13T10:35:19.837Z,67.57
2022-12-13T10:36:41.677Z,67.29
2022-12-13T10:37:43.409Z,67.58
2022-12-13T10:38:46.158Z,67.66
2022-12-13T10:39:47.942Z,67.16
2022-12-13T10:40:49.770Z,67.97
2022-12-13T10:42:02.543Z,68.20
2022-12-13T10:43:24.836Z,67.25
2022-12-13T10:44:26.888Z,67.20
2022-12-13T10:45:29.989Z,67.35
2022-12-13T10:46:38.605Z,67.31
2022-12-13T10:47:42.941Z,67.32
2022-12-13T10:48:49.539Z,67.83
2022-12-13T10:49:59.387Z,67.73
2022-12-13T10:51:03.277Z,68.19
2022-12-13T10:52:05.683Z,68.28
2022-12-13T10:53:07.539Z,67.46
2022-12-13T10:54:15.851Z,67.46
2022-12-13T10:55:36.362Z,67.54
2022-12-13T10:56:43.528Z,67.59
2022-12-13T10:57:50.339Z,67.81
2022-12-13T10:59:14.982Z,67.50
2022-12-13T11:00:40.688Z,67.25
2022-12-13T11:01:42.534Z,67.37
2022-12-13T11:02:54.282Z,67.34
2022-12-13T11:04:05.944Z,67.20
2022-12-13T11:05:23.444Z,67.43
2022-12-13T11:06:26.736Z,67.27
2022-12-13T11:07:29.951Z,67.62
2022-12-13T11:08:31.728Z,67.70
2022-12-13T11:09:38.458Z,67.29
2022-12-13T11:10:41.352Z,66.81
2022-12-13T11:11:44.614Z,66.85
2022-12-13T11:12:46.893Z,67.74
2022-12-13T11:13:53.090Z,67.13
2022-12-13T11:14:56.942Z,66.56
2022-12-13T11:15:58.772Z,67.64
2022-12-13T11:17:14.421Z,67.71
2022-12-13T11:18:21.712Z,67.23
2022-12-13T11:19:26.502Z,67.65
2022-12-13T11:20:33.266Z,67.21
2022-12-13T11:21:37.142Z,67.79
2022-12-13T11:22:39.086Z,67.73
2022-12-13T11:23:45.178Z,67.50
2022-12-13T11:24:51.705Z,67.53
2022-12-13T11:25:58.176Z,67.25
2022-12-13T11:27:17.302Z,66.87
2022-12-13T11:28:25.868Z,67.01
2022-12-13T11:29:29.386Z,67.53
2022-12-13T11:30:43.984Z,67.76
2022-12-13T11:31:48.606Z,67.20
2022-12-13T11:33:05.491Z,67.23
2022-12-13T11:34:13.452Z,66.91
2022-12-13T11:35:20.810Z,67.74
2022-12-13T11:36:22.601Z,67.52
2022-12-13T11:37:33.307Z,67.23
2022-12-13T11:38:50.060Z,66.55
2022-12-13T11:40:01.382Z,66.97
2022-12-13T11:41:32.342Z,67.26
2022-12-13T11:42:39.244Z,67.45
2022-12-13T11:43:48.180Z,66.95
2022-12-13T11:45:00.990Z,66.65
2022-12-13T11:46:05.993Z,67.01
2022-12-13T11:47:13.078Z,67.52
2022-12-13T11:48:22.473Z,67.43
2022-12-13T11:49:45.885Z,66.88
2022-12-13T11:50:49.200Z,67.08
2022-12-13T11:51:54.271Z,67.12
2022-12-13T11:52:59.214Z,67.15
2022-12-13T11:54:11.114Z,67.15
2022-12-13T11:55:18.626Z,67.30
2022-12-13T11:56:27.015Z,66.66
2022-12-13T11:57:32.774Z,66.82
2022-12-13T12:00:05.605Z,67.05
2022-12-13T12:01:22.860Z,67.12
2022-12-13T12:02:32.983Z,66.90
2022-12-13T12:03:35.214Z,67.10
2022-12-13T12:04:59.732Z,67.08
2022-12-13T12:06:10.942Z,66.69
2022-12-13T12:07:31.756Z,66.50
2022-12-13T12:08:44.044Z,67.02
2022-12-13T12:10:06.998Z,67.63
2022-12-13T12:11:17.862Z,66.51
2022-12-13T12:12:29.203Z,67.10
2022-12-13T12:13:50.995Z,66.75
2022-12-13T12:14:53.941Z,67.35
2022-12-13T12:16:21.229Z,66.24
2022-12-13T12:17:25.281Z,66.97
2022-12-13T12:18:27.449Z,66.87
2022-12-13T12:19:39.954Z,66.59
2022-12-13T12:20:41.811Z,65.92
2022-12-13T12:22:13.219Z,66.12
2022-12-13T12:23:27.142Z,65.72
2022-12-13T12:24:45.298Z,66.31
2022-12-13T12:25:52.662Z,66.54
2022-12-13T12:27:22.739Z,66.72
2022-12-13T12:28:44.312Z,66.02
2022-12-13T12:29:52.064Z,65.61
2022-12-13T12:31:00.461Z,64.39
2022-12-13T12:32:02.208Z,63.23
2022-12-13T12:33:14.148Z,63.58
2022-12-13T12:34:34.967Z,64.19
2022-12-13T12:35:48.802Z,64.61
2022-12-13T12:37:02.620Z,63.65
2022-12-13T12:38:12.518Z,64.18
2022-12-13T12:39:20.259Z,62.79
2022-12-13T12:41:07.545Z,62.14
2022-12-13T12:42:13.491Z,61.74
2022-12-13T12:43:30.767Z,63.76
2022-12-13T12:44:42.262Z,62.87
2022-12-13T12:45:56.233Z,62.38
2022-12-13T12:47:19.019Z,62.90
2022-12-13T12:48:56.890Z,62.63
2022-12-13T12:50:03.996Z,64.16
2022-12-13T12:51:17.669Z,62.87
2022-12-13T12:52:26.706Z,63.51
2022-12-13T12:53:31.259Z,62.55
2022-12-13T12:55:05.444Z,63.55
2022-12-13T12:56:17.811Z,61.39
2022-12-13T12:57:30.397Z,61.50
2022-12-13T12:58:38.878Z,61.98
2022-12-13T12:59:49.749Z,62.09
2022-12-13T13:01:04.891Z,61.85
2022-12-13T13:02:24.385Z,60.96
2022-12-13T13:03:28.689Z,61.29
2022-12-13T13:04:35.989Z,62.60
2022-12-13T13:06:01.875Z,63.06
2022-12-13T13:07:22.619Z,63.61
2022-12-13T13:08:29.232Z,64.18
2022-12-13T13:09:33.132Z,64.75
2022-12-13T13:10:35.117Z,64.84
2022-12-13T13:11:42.767Z,64.63
2022-12-13T13:12:45.389Z,64.55
2022-12-13T13:13:48.939Z,62.75
2022-12-13T13:14:50.709Z,62.00
2022-12-13T13:15:56.720Z,61.33
2022-12-13T13:17:00.149Z,61.86
2022-12-13T13:18:02.079Z,60.91
2022-12-13T13:19:05.680Z,60.91
2022-12-13T13:20:18.165Z,61.22
2022-12-13T13:21:32.290Z,62.82
2022-12-13T13:22:44.406Z,62.71
2022-12-13T13:23:48.079Z,62.53
2022-12-13T13:24:58.697Z,61.38
2022-12-13T13:26:24.301Z,61.77
2022-12-13T13:27:30.560Z,62.38
2022-12-13T13:28:32.370Z,63.12
2022-12-13T13:29:35.675Z,62.91
2022-12-13T13:30:37.532Z,62.92
2022-12-13T13:32:00.885Z,62.76
2022-12-13T13:33:03.756Z,64.21
2022-12-13T13:34:22.363Z,64.32
2022-12-13T13:35:33.607Z,65.08
2022-12-13T13:36:47.512Z,65.05
2022-12-13T13:37:49.405Z,64.56
2022-12-13T13:38:53.732Z,64.27
2022-12-13T13:39:58.934Z,63.65
2022-12-13T13:41:20.918Z,64.21
2022-12-13T13:42:32.152Z,64.21
2022-12-13T13:43:34.445Z,63.97
2022-12-13T13:44:45.798Z,64.26
2022-12-13T13:45:50.655Z,64.17
2022-12-13T13:47:10.979Z,64.50
2022-12-13T13:48:15.848Z,64.76
2022-12-13T13:49:17.635Z,64.64
2022-12-13T13:50:30.695Z,64.52
2022-12-13T13:52:26.728Z,64.61
2022-12-13T13:53:47.107Z,64.09
2022-12-13T13:55:00.636Z,63.97
2022-12-13T13:56:21.170Z,64.67
2022-12-13T13:58:07.786Z,64.95
2022-12-13T13:58:51.574Z,65.79
2022-12-13T13:59:59.460Z,66.16
2022-12-13T14:01:09.968Z,66.11
2022-12-13T14:02:30.327Z,66.44
2022-12-13T14:03:34.588Z,66.00
2022-12-13T14:04:42.225Z,66.31
2022-12-13T14:05:46.951Z,66.20
2022-12-13T14:06:48.724Z,66.19
2022-12-13T14:07:53.379Z,66.09
2022-12-13T14:09:13.472Z,66.70
2022-12-13T14:10:37.491Z,66.58
2022-12-13T14:11:57.595Z,66.17
2022-12-13T14:13:17.955Z,65.66
2022-12-13T14:14:50.079Z,65.06
2022-12-13T14:15:52.062Z,65.89